sensor_id;sensor_type;location;lat;lon;timestamp;P1;durP1;ratioP1;P2;durP2;ratioP2
33593;SDS011;19920;52.242;20.940;2022-12-26T00:01:32;40.65;;;21.10;;
33593;SDS011;19920;52.242;20.940;2022-12-26T00:04:00;44.05;;;21.98;;
33593;SDS011;19920;52.242;20.940;2022-12-26T00:06:26;40.35;;;21.48;;
33593;SDS011;19920;52.242;20.940;2022-12-26T00:08:54;38.60;;;20.42;;
33593;SDS011;19920;52.242;20.940;2022-12-26T00:11:20;39.78;;;21.33;;
33593;SDS011;19920;52.242;20.940;2022-12-26T00:13:47;38.50;;;21.20;;
33593;SDS011;19920;52.242;20.940;2022-12-26T00:16:18;38.03;;;20.85;;
33593;SDS011;19920;52.242;20.940;2022-12-26T00:18:45;43.58;;;22.48;;
33593;SDS011;19920;52.242;20.940;2022-12-26T00:21:11;40.53;;;21.17;;
33593;SDS011;19920;52.242;20.940;2022-12-26T00:23:38;38.58;;;21.40;;
33593;SDS011;19920;52.242;20.940;2022-12-26T00:26:05;41.53;;;21.98;;
33593;SDS011;19920;52.242;20.940;2022-12-26T00:28:35;43.25;;;22.38;;
33593;SDS011;19920;52.242;20.940;2022-12-26T00:31:05;40.60;;;22.10;;
33593;SDS011;19920;52.242;20.940;2022-12-26T00:33:33;36.67;;;20.60;;
33593;SDS011;19920;52.242;20.940;2022-12-26T00:36:00;39.22;;;21.58;;
33593;SDS011;19920;52.242;20.940;2022-12-26T00:38:32;40.67;;;21.95;;
33593;SDS011;19920;52.242;20.940;2022-12-26T00:40:59;40.60;;;22.95;;
33593;SDS011;19920;52.242;20.940;2022-12-26T00:43:24;38.75;;;22.23;;
33593;SDS011;19920;52.242;20.940;2022-12-26T00:45:50;41.85;;;22.13;;
33593;SDS011;19920;52.242;20.940;2022-12-26T00:48:16;45.00;;;22.70;;
33593;SDS011;19920;52.242;20.940;2022-12-26T00:50:41;41.50;;;22.23;;
33593;SDS011;19920;52.242;20.940;2022-12-26T00:53:07;43.63;;;23.10;;
33593;SDS011;19920;52.242;20.940;2022-12-26T00:55:33;40.45;;;23.00;;
33593;SDS011;19920;52.242;20.940;2022-12-26T00:57:58;41.97;;;22.02;;
33593;SDS011;19920;52.242;20.940;2022-12-26T01:00:24;41.65;;;22.30;;
33593;SDS011;19920;52.242;20.940;2022-12-26T01:02:49;46.80;;;24.67;;
33593;SDS011;19920;52.242;20.940;2022-12-26T01:05:15;43.85;;;22.52;;
33593;SDS011;19920;52.242;20.940;2022-12-26T01:07:41;41.33;;;23.83;;
33593;SDS011;19920;52.242;20.940;2022-12-26T01:10:07;42.42;;;23.60;;
33593;SDS011;19920;52.242;20.940;2022-12-26T01:12:35;39.90;;;23.70;;
33593;SDS011;19920;52.242;20.940;2022-12-26T01:15:01;39.78;;;22.70;;
33593;SDS011;19920;52.242;20.940;2022-12-26T01:17:27;41.85;;;23.00;;
33593;SDS011;19920;52.242;20.940;2022-12-26T01:19:53;40.63;;;23.60;;
33593;SDS011;19920;52.242;20.940;2022-12-26T01:22:20;39.45;;;22.77;;
33593;SDS011;19920;52.242;20.940;2022-12-26T01:24:46;43.35;;;22.67;;
33593;SDS011;19920;52.242;20.940;2022-12-26T01:27:12;40.17;;;22.33;;
33593;SDS011;19920;52.242;20.940;2022-12-26T01:29:38;39.55;;;21.73;;
33593;SDS011;19920;52.242;20.940;2022-12-26T01:32:03;38.13;;;21.45;;
33593;SDS011;19920;52.242;20.940;2022-12-26T01:34:29;42.95;;;23.38;;
33593;SDS011;19920;52.242;20.940;2022-12-26T01:36:55;36.42;;;20.88;;
33593;SDS011;19920;52.242;20.940;2022-12-26T01:39:21;37.33;;;20.88;;
33593;SDS011;19920;52.242;20.940;2022-12-26T01:41:47;37.67;;;21.45;;
33593;SDS011;19920;52.242;20.940;2022-12-26T01:47:16;34.95;;;20.08;;
33593;SDS011;19920;52.242;20.940;2022-12-26T01:49:43;39.20;;;21.63;;
33593;SDS011;19920;52.242;20.940;2022-12-26T01:52:14;36.55;;;21.58;;
33593;SDS011;19920;52.242;20.940;2022-12-26T01:54:46;38.28;;;21.15;;
33593;SDS011;19920;52.242;20.940;2022-12-26T01:57:19;39.08;;;21.20;;
33593;SDS011;19920;52.242;20.940;2022-12-26T01:59:53;40.20;;;21.30;;
33593;SDS011;19920;52.242;20.940;2022-12-26T02:02:20;34.10;;;20.38;;
33593;SDS011;19920;52.242;20.940;2022-12-26T02:04:48;37.17;;;21.20;;
33593;SDS011;19920;52.242;20.940;2022-12-26T02:07:35;40.97;;;21.88;;
33593;SDS011;19920;52.242;20.940;2022-12-26T02:10:04;41.27;;;21.93;;
33593;SDS011;19920;52.242;20.940;2022-12-26T02:12:33;38.05;;;20.58;;
33593;SDS011;19920;52.242;20.940;2022-12-26T02:14:59;39.03;;;20.20;;
33593;SDS011;19920;52.242;20.940;2022-12-26T02:17:27;37.55;;;21.55;;
33593;SDS011;19920;52.242;20.940;2022-12-26T02:30:51;41.83;;;22.15;;
33593;SDS011;19920;52.242;20.940;2022-12-26T02:39:33;41.85;;;22.98;;
33593;SDS011;19920;52.242;20.940;2022-12-26T02:44:51;41.42;;;23.58;;
33593;SDS011;19920;52.242;20.940;2022-12-26T02:55:44;40.28;;;23.45;;
33593;SDS011;19920;52.242;20.940;2022-12-26T02:58:39;44.53;;;24.65;;
33593;SDS011;19920;52.242;20.940;2022-12-26T03:01:38;47.70;;;23.27;;
33593;SDS011;19920;52.242;20.940;2022-12-26T03:04:27;40.90;;;23.92;;
33593;SDS011;19920;52.242;20.940;2022-12-26T03:07:19;41.20;;;24.10;;
33593;SDS011;19920;52.242;20.940;2022-12-26T03:10:27;40.70;;;23.13;;
33593;SDS011;19920;52.242;20.940;2022-12-26T03:13:16;41.42;;;22.95;;
33593;SDS011;19920;52.242;20.940;2022-12-26T03:15:54;43.30;;;23.85;;
33593;SDS011;19920;52.242;20.940;2022-12-26T03:18:42;39.45;;;22.15;;
33593;SDS011;19920;52.242;20.940;2022-12-26T03:21:11;40.13;;;23.00;;
33593;SDS011;19920;52.242;20.940;2022-12-26T03:23:39;41.97;;;23.52;;
33593;SDS011;19920;52.242;20.940;2022-12-26T03:26:08;42.50;;;23.33;;
33593;SDS011;19920;52.242;20.940;2022-12-26T03:28:59;37.13;;;21.83;;
33593;SDS011;19920;52.242;20.940;2022-12-26T03:31:43;40.58;;;23.33;;
33593;SDS011;19920;52.242;20.940;2022-12-26T03:34:09;39.03;;;23.70;;
33593;SDS011;19920;52.242;20.940;2022-12-26T03:39:46;39.67;;;21.48;;
33593;SDS011;19920;52.242;20.940;2022-12-26T03:45:28;35.25;;;21.15;;
33593;SDS011;19920;52.242;20.940;2022-12-26T03:48:24;34.88;;;20.02;;
33593;SDS011;19920;52.242;20.940;2022-12-26T03:51:20;35.10;;;19.30;;
33593;SDS011;19920;52.242;20.940;2022-12-26T03:57:23;34.30;;;19.30;;
33593;SDS011;19920;52.242;20.940;2022-12-26T04:00:13;29.38;;;17.83;;
33593;SDS011;19920;52.242;20.940;2022-12-26T04:02:59;32.72;;;18.45;;
33593;SDS011;19920;52.242;20.940;2022-12-26T04:05:48;30.90;;;18.63;;
33593;SDS011;19920;52.242;20.940;2022-12-26T04:08:46;31.85;;;17.83;;
33593;SDS011;19920;52.242;20.940;2022-12-26T04:11:37;30.00;;;17.77;;
33593;SDS011;19920;52.242;20.940;2022-12-26T04:17:43;30.83;;;17.98;;
33593;SDS011;19920;52.242;20.940;2022-12-26T04:23:23;43.70;;;22.30;;
33593;SDS011;19920;52.242;20.940;2022-12-26T04:26:22;33.97;;;19.60;;
33593;SDS011;19920;52.242;20.940;2022-12-26T04:29:12;69.43;;;31.08;;
33593;SDS011;19920;52.242;20.940;2022-12-26T04:35:04;56.72;;;26.45;;
33593;SDS011;19920;52.242;20.940;2022-12-26T04:37:56;30.42;;;18.42;;
33593;SDS011;19920;52.242;20.940;2022-12-26T04:40:43;29.92;;;16.48;;
33593;SDS011;19920;52.242;20.940;2022-12-26T04:43:32;27.92;;;17.52;;
33593;SDS011;19920;52.242;20.940;2022-12-26T04:46:19;26.00;;;16.58;;
33593;SDS011;19920;52.242;20.940;2022-12-26T04:48:47;28.90;;;16.83;;
33593;SDS011;19920;52.242;20.940;2022-12-26T04:51:33;27.23;;;16.73;;
33593;SDS011;19920;52.242;20.940;2022-12-26T04:53:59;26.38;;;16.67;;
33593;SDS011;19920;52.242;20.940;2022-12-26T04:56:25;27.55;;;16.92;;
33593;SDS011;19920;52.242;20.940;2022-12-26T04:58:50;28.58;;;17.52;;
33593;SDS011;19920;52.242;20.940;2022-12-26T05:01:16;25.02;;;17.25;;
33593;SDS011;19920;52.242;20.940;2022-12-26T05:04:00;26.80;;;16.55;;
33593;SDS011;19920;52.242;20.940;2022-12-26T05:06:44;22.38;;;15.20;;
33593;SDS011;19920;52.242;20.940;2022-12-26T05:09:29;24.75;;;15.23;;
33593;SDS011;19920;52.242;20.940;2022-12-26T05:12:04;27.83;;;16.77;;
33593;SDS011;19920;52.242;20.940;2022-12-26T05:14:32;27.63;;;16.88;;
33593;SDS011;19920;52.242;20.940;2022-12-26T05:17:00;24.67;;;15.38;;
33593;SDS011;19920;52.242;20.940;2022-12-26T05:19:44;24.30;;;15.05;;
33593;SDS011;19920;52.242;20.940;2022-12-26T05:22:30;22.67;;;14.32;;
33593;SDS011;19920;52.242;20.940;2022-12-26T05:25:17;21.23;;;14.38;;
33593;SDS011;19920;52.242;20.940;2022-12-26T05:28:11;25.92;;;15.90;;
33593;SDS011;19920;52.242;20.940;2022-12-26T05:30:57;20.05;;;13.20;;
33593;SDS011;19920;52.242;20.940;2022-12-26T05:33:23;25.45;;;16.08;;
33593;SDS011;19920;52.242;20.940;2022-12-26T05:36:08;18.27;;;12.95;;
33593;SDS011;19920;52.242;20.940;2022-12-26T05:38:34;20.70;;;13.48;;
33593;SDS011;19920;52.242;20.940;2022-12-26T05:41:01;19.15;;;12.18;;
33593;SDS011;19920;52.242;20.940;2022-12-26T05:43:27;17.98;;;12.40;;
33593;SDS011;19920;52.242;20.940;2022-12-26T05:45:53;18.30;;;11.98;;
33593;SDS011;19920;52.242;20.940;2022-12-26T05:48:18;21.60;;;14.05;;
33593;SDS011;19920;52.242;20.940;2022-12-26T05:50:44;22.63;;;14.02;;
33593;SDS011;19920;52.242;20.940;2022-12-26T05:53:09;19.70;;;13.43;;
33593;SDS011;19920;52.242;20.940;2022-12-26T05:55:35;20.10;;;12.13;;
33593;SDS011;19920;52.242;20.940;2022-12-26T05:58:01;17.80;;;12.00;;
33593;SDS011;19920;52.242;20.940;2022-12-26T06:00:26;24.40;;;13.95;;
33593;SDS011;19920;52.242;20.940;2022-12-26T06:02:54;17.90;;;11.55;;
33593;SDS011;19920;52.242;20.940;2022-12-26T06:05:19;17.25;;;11.50;;
33593;SDS011;19920;52.242;20.940;2022-12-26T06:07:45;21.25;;;12.60;;
33593;SDS011;19920;52.242;20.940;2022-12-26T06:10:10;17.63;;;11.60;;
33593;SDS011;19920;52.242;20.940;2022-12-26T06:12:36;16.83;;;11.38;;
33593;SDS011;19920;52.242;20.940;2022-12-26T06:15:02;15.77;;;10.07;;
33593;SDS011;19920;52.242;20.940;2022-12-26T06:17:28;15.35;;;10.23;;
33593;SDS011;19920;52.242;20.940;2022-12-26T06:19:53;15.35;;;10.05;;
33593;SDS011;19920;52.242;20.940;2022-12-26T06:22:19;15.20;;;9.80;;
33593;SDS011;19920;52.242;20.940;2022-12-26T06:24:45;15.68;;;10.15;;
33593;SDS011;19920;52.242;20.940;2022-12-26T06:27:10;14.50;;;9.23;;
33593;SDS011;19920;52.242;20.940;2022-12-26T06:29:36;13.18;;;8.88;;
33593;SDS011;19920;52.242;20.940;2022-12-26T06:32:02;12.90;;;9.32;;
33593;SDS011;19920;52.242;20.940;2022-12-26T06:34:28;15.20;;;10.45;;
33593;SDS011;19920;52.242;20.940;2022-12-26T06:36:54;14.18;;;9.65;;
33593;SDS011;19920;52.242;20.940;2022-12-26T06:39:20;14.93;;;9.82;;
33593;SDS011;19920;52.242;20.940;2022-12-26T06:41:46;13.40;;;8.85;;
33593;SDS011;19920;52.242;20.940;2022-12-26T06:44:11;12.15;;;9.30;;
33593;SDS011;19920;52.242;20.940;2022-12-26T06:46:37;13.77;;;9.65;;
33593;SDS011;19920;52.242;20.940;2022-12-26T06:49:03;16.15;;;10.77;;
33593;SDS011;19920;52.242;20.940;2022-12-26T06:51:30;14.32;;;9.55;;
33593;SDS011;19920;52.242;20.940;2022-12-26T06:53:57;16.73;;;10.90;;
33593;SDS011;19920;52.242;20.940;2022-12-26T06:56:26;18.40;;;11.48;;
33593;SDS011;19920;52.242;20.940;2022-12-26T06:58:55;13.90;;;9.90;;
33593;SDS011;19920;52.242;20.940;2022-12-26T07:01:22;14.15;;;10.13;;
33593;SDS011;19920;52.242;20.940;2022-12-26T07:03:50;15.00;;;9.80;;
33593;SDS011;19920;52.242;20.940;2022-12-26T07:08:52;16.02;;;10.30;;
33593;SDS011;19920;52.242;20.940;2022-12-26T07:11:21;17.75;;;11.75;;
33593;SDS011;19920;52.242;20.940;2022-12-26T07:13:48;16.33;;;10.57;;
33593;SDS011;19920;52.242;20.940;2022-12-26T07:16:14;16.20;;;11.50;;
33593;SDS011;19920;52.242;20.940;2022-12-26T07:18:40;18.23;;;12.20;;
33593;SDS011;19920;52.242;20.940;2022-12-26T07:21:06;17.60;;;11.98;;
33593;SDS011;19920;52.242;20.940;2022-12-26T07:23:36;19.17;;;12.50;;
33593;SDS011;19920;52.242;20.940;2022-12-26T07:26:02;15.98;;;11.40;;
33593;SDS011;19920;52.242;20.940;2022-12-26T07:28:28;16.48;;;11.75;;
33593;SDS011;19920;52.242;20.940;2022-12-26T07:30:54;15.98;;;11.48;;
33593;SDS011;19920;52.242;20.940;2022-12-26T07:33:21;17.38;;;12.18;;
33593;SDS011;19920;52.242;20.940;2022-12-26T07:35:47;16.90;;;11.63;;
33593;SDS011;19920;52.242;20.940;2022-12-26T07:38:13;15.85;;;11.10;;
33593;SDS011;19920;52.242;20.940;2022-12-26T07:40:39;15.60;;;10.93;;
33593;SDS011;19920;52.242;20.940;2022-12-26T07:43:04;18.77;;;11.73;;
33593;SDS011;19920;52.242;20.940;2022-12-26T07:45:30;15.63;;;10.90;;
33593;SDS011;19920;52.242;20.940;2022-12-26T07:47:56;14.90;;;10.55;;
33593;SDS011;19920;52.242;20.940;2022-12-26T07:50:24;15.90;;;11.68;;
33593;SDS011;19920;52.242;20.940;2022-12-26T07:52:50;16.83;;;11.07;;
33593;SDS011;19920;52.242;20.940;2022-12-26T07:55:16;15.52;;;10.27;;
33593;SDS011;19920;52.242;20.940;2022-12-26T07:57:42;15.55;;;10.98;;
33593;SDS011;19920;52.242;20.940;2022-12-26T08:00:07;13.80;;;10.10;;
33593;SDS011;19920;52.242;20.940;2022-12-26T08:02:33;14.63;;;10.35;;
33593;SDS011;19920;52.242;20.940;2022-12-26T08:04:59;17.23;;;11.55;;
33593;SDS011;19920;52.242;20.940;2022-12-26T08:07:24;14.85;;;10.60;;
33593;SDS011;19920;52.242;20.940;2022-12-26T08:09:50;16.55;;;10.23;;
33593;SDS011;19920;52.242;20.940;2022-12-26T08:12:16;16.20;;;10.88;;
33593;SDS011;19920;52.242;20.940;2022-12-26T08:14:45;16.08;;;10.85;;
33593;SDS011;19920;52.242;20.940;2022-12-26T08:17:11;16.15;;;10.52;;
33593;SDS011;19920;52.242;20.940;2022-12-26T08:19:37;17.30;;;11.35;;
33593;SDS011;19920;52.242;20.940;2022-12-26T08:22:02;16.33;;;10.38;;
33593;SDS011;19920;52.242;20.940;2022-12-26T08:24:28;14.65;;;10.55;;
33593;SDS011;19920;52.242;20.940;2022-12-26T08:26:53;18.02;;;11.02;;
33593;SDS011;19920;52.242;20.940;2022-12-26T08:29:19;17.35;;;10.88;;
33593;SDS011;19920;52.242;20.940;2022-12-26T08:31:45;16.90;;;10.90;;
33593;SDS011;19920;52.242;20.940;2022-12-26T08:34:10;15.32;;;10.45;;
33593;SDS011;19920;52.242;20.940;2022-12-26T08:36:37;17.85;;;11.27;;
33593;SDS011;19920;52.242;20.940;2022-12-26T08:39:04;15.63;;;11.18;;
33593;SDS011;19920;52.242;20.940;2022-12-26T08:41:29;17.92;;;11.52;;
33593;SDS011;19920;52.242;20.940;2022-12-26T08:43:55;19.45;;;11.30;;
33593;SDS011;19920;52.242;20.940;2022-12-26T08:46:21;18.20;;;11.50;;
33593;SDS011;19920;52.242;20.940;2022-12-26T08:48:47;17.63;;;11.98;;
33593;SDS011;19920;52.242;20.940;2022-12-26T08:51:19;17.58;;;11.82;;
33593;SDS011;19920;52.242;20.940;2022-12-26T08:53:48;19.58;;;12.40;;
33593;SDS011;19920;52.242;20.940;2022-12-26T08:56:16;21.20;;;13.55;;
33593;SDS011;19920;52.242;20.940;2022-12-26T08:58:44;19.70;;;12.70;;
33593;SDS011;19920;52.242;20.940;2022-12-26T09:03:36;21.23;;;12.75;;
33593;SDS011;19920;52.242;20.940;2022-12-26T09:06:03;18.48;;;12.35;;
33593;SDS011;19920;52.242;20.940;2022-12-26T09:08:30;17.42;;;11.57;;
33593;SDS011;19920;52.242;20.940;2022-12-26T09:13:51;20.10;;;11.77;;
33593;SDS011;19920;52.242;20.940;2022-12-26T09:16:21;18.17;;;11.93;;
33593;SDS011;19920;52.242;20.940;2022-12-26T09:18:52;20.35;;;12.55;;
33593;SDS011;19920;52.242;20.940;2022-12-26T09:21:22;18.75;;;12.95;;
33593;SDS011;19920;52.242;20.940;2022-12-26T09:23:48;17.80;;;12.18;;
33593;SDS011;19920;52.242;20.940;2022-12-26T09:26:16;21.48;;;13.00;;
33593;SDS011;19920;52.242;20.940;2022-12-26T09:28:43;20.10;;;12.85;;
33593;SDS011;19920;52.242;20.940;2022-12-26T09:31:24;19.45;;;13.30;;
33593;SDS011;19920;52.242;20.940;2022-12-26T09:33:52;19.23;;;12.48;;
33593;SDS011;19920;52.242;20.940;2022-12-26T09:36:19;19.30;;;13.05;;
33593;SDS011;19920;52.242;20.940;2022-12-26T09:38:47;19.75;;;12.50;;
33593;SDS011;19920;52.242;20.940;2022-12-26T09:46:29;19.98;;;13.20;;
33593;SDS011;19920;52.242;20.940;2022-12-26T09:49:05;24.73;;;14.32;;
33593;SDS011;19920;52.242;20.940;2022-12-26T09:51:38;23.73;;;14.13;;
33593;SDS011;19920;52.242;20.940;2022-12-26T09:54:07;22.52;;;14.55;;
33593;SDS011;19920;52.242;20.940;2022-12-26T09:56:42;22.98;;;13.77;;
33593;SDS011;19920;52.242;20.940;2022-12-26T09:59:13;20.90;;;14.20;;
33593;SDS011;19920;52.242;20.940;2022-12-26T10:01:41;20.58;;;14.02;;
33593;SDS011;19920;52.242;20.940;2022-12-26T10:04:12;22.65;;;14.13;;
33593;SDS011;19920;52.242;20.940;2022-12-26T10:06:51;23.50;;;14.00;;
33593;SDS011;19920;52.242;20.940;2022-12-26T10:12:23;21.52;;;13.98;;
33593;SDS011;19920;52.242;20.940;2022-12-26T10:18:18;22.05;;;14.63;;
33593;SDS011;19920;52.242;20.940;2022-12-26T10:21:21;20.88;;;13.73;;
33593;SDS011;19920;52.242;20.940;2022-12-26T10:24:11;23.23;;;13.82;;
33593;SDS011;19920;52.242;20.940;2022-12-26T10:26:41;24.58;;;14.48;;
33593;SDS011;19920;52.242;20.940;2022-12-26T10:29:20;22.52;;;13.70;;
33593;SDS011;19920;52.242;20.940;2022-12-26T10:31:58;23.65;;;14.82;;
33593;SDS011;19920;52.242;20.940;2022-12-26T10:34:36;20.88;;;14.15;;
33593;SDS011;19920;52.242;20.940;2022-12-26T10:39:58;22.58;;;14.30;;
33593;SDS011;19920;52.242;20.940;2022-12-26T10:42:47;25.40;;;14.07;;
33593;SDS011;19920;52.242;20.940;2022-12-26T10:45:17;21.13;;;14.10;;
33593;SDS011;19920;52.242;20.940;2022-12-26T10:48:00;23.73;;;15.65;;
33593;SDS011;19920;52.242;20.940;2022-12-26T10:50:28;24.60;;;14.40;;
33593;SDS011;19920;52.242;20.940;2022-12-26T10:52:59;23.13;;;14.32;;
33593;SDS011;19920;52.242;20.940;2022-12-26T10:55:29;21.88;;;14.65;;
33593;SDS011;19920;52.242;20.940;2022-12-26T10:57:57;19.98;;;13.63;;
33593;SDS011;19920;52.242;20.940;2022-12-26T11:00:27;20.27;;;14.25;;
33593;SDS011;19920;52.242;20.940;2022-12-26T11:03:27;24.27;;;14.85;;
33593;SDS011;19920;52.242;20.940;2022-12-26T11:05:49;21.20;;;13.55;;
33593;SDS011;19920;52.242;20.940;2022-12-26T11:08:18;22.52;;;14.15;;
33593;SDS011;19920;52.242;20.940;2022-12-26T11:10:47;20.30;;;13.93;;
33593;SDS011;19920;52.242;20.940;2022-12-26T11:13:34;21.10;;;14.23;;
33593;SDS011;19920;52.242;20.940;2022-12-26T11:16:03;20.10;;;13.93;;
33593;SDS011;19920;52.242;20.940;2022-12-26T11:21:16;22.73;;;13.40;;
33593;SDS011;19920;52.242;20.940;2022-12-26T11:23:52;20.80;;;13.48;;
33593;SDS011;19920;52.242;20.940;2022-12-26T11:26:43;20.35;;;12.98;;
33593;SDS011;19920;52.242;20.940;2022-12-26T11:29:16;19.30;;;13.38;;
33593;SDS011;19920;52.242;20.940;2022-12-26T11:32:00;24.75;;;13.45;;
33593;SDS011;19920;52.242;20.940;2022-12-26T11:34:29;20.20;;;13.00;;
33593;SDS011;19920;52.242;20.940;2022-12-26T11:36:58;19.08;;;12.95;;
33593;SDS011;19920;52.242;20.940;2022-12-26T11:39:26;18.67;;;13.20;;
33593;SDS011;19920;52.242;20.940;2022-12-26T11:41:55;18.52;;;12.75;;
33593;SDS011;19920;52.242;20.940;2022-12-26T11:49:38;17.88;;;11.77;;
33593;SDS011;19920;52.242;20.940;2022-12-26T12:21:45;17.23;;;11.02;;
33593;SDS011;19920;52.242;20.940;2022-12-26T12:26:45;16.27;;;10.73;;
33593;SDS011;19920;52.242;20.940;2022-12-26T12:35:06;15.82;;;11.10;;
33593;SDS011;19920;52.242;20.940;2022-12-26T12:56:44;15.90;;;11.25;;
33593;SDS011;19920;52.242;20.940;2022-12-26T13:01:56;14.63;;;10.68;;
33593;SDS011;19920;52.242;20.940;2022-12-26T13:04:27;14.65;;;10.35;;
33593;SDS011;19920;52.242;20.940;2022-12-26T13:06:58;17.48;;;10.77;;
33593;SDS011;19920;52.242;20.940;2022-12-26T13:09:36;17.83;;;11.57;;
33593;SDS011;19920;52.242;20.940;2022-12-26T13:12:08;15.38;;;11.10;;
33593;SDS011;19920;52.242;20.940;2022-12-26T13:14:48;18.30;;;11.40;;
33593;SDS011;19920;52.242;20.940;2022-12-26T13:17:21;16.25;;;10.65;;
33593;SDS011;19920;52.242;20.940;2022-12-26T13:20:02;18.08;;;10.75;;
33593;SDS011;19920;52.242;20.940;2022-12-26T13:22:32;18.60;;;11.73;;
33593;SDS011;19920;52.242;20.940;2022-12-26T13:25:21;16.77;;;11.38;;
33593;SDS011;19920;52.242;20.940;2022-12-26T13:27:49;19.98;;;11.68;;
33593;SDS011;19920;52.242;20.940;2022-12-26T13:30:17;17.58;;;11.27;;
33593;SDS011;19920;52.242;20.940;2022-12-26T13:32:43;16.67;;;10.85;;
33593;SDS011;19920;52.242;20.940;2022-12-26T13:35:45;15.90;;;10.55;;
33593;SDS011;19920;52.242;20.940;2022-12-26T13:38:13;15.35;;;10.27;;
33593;SDS011;19920;52.242;20.940;2022-12-26T13:40:44;15.93;;;10.32;;
33593;SDS011;19920;52.242;20.940;2022-12-26T13:44:00;17.55;;;11.20;;
33593;SDS011;19920;52.242;20.940;2022-12-26T13:51:59;17.17;;;10.85;;
33593;SDS011;19920;52.242;20.940;2022-12-26T14:00:39;14.13;;;9.65;;
33593;SDS011;19920;52.242;20.940;2022-12-26T14:16:52;17.23;;;9.95;;
33593;SDS011;19920;52.242;20.940;2022-12-26T14:25:01;16.52;;;10.77;;
33593;SDS011;19920;52.242;20.940;2022-12-26T14:33:24;15.02;;;9.70;;
33593;SDS011;19920;52.242;20.940;2022-12-26T14:44:48;15.80;;;9.77;;
33593;SDS011;19920;52.242;20.940;2022-12-26T14:47:16;13.35;;;9.30;;
33593;SDS011;19920;52.242;20.940;2022-12-26T15:11:53;16.65;;;11.00;;
33593;SDS011;19920;52.242;20.940;2022-12-26T15:25:31;21.00;;;13.13;;
33593;SDS011;19920;52.242;20.940;2022-12-26T15:33:44;19.10;;;11.50;;
33593;SDS011;19920;52.242;20.940;2022-12-26T15:51:06;16.25;;;10.43;;
33593;SDS011;19920;52.242;20.940;2022-12-26T16:01:49;13.85;;;8.88;;
33593;SDS011;19920;52.242;20.940;2022-12-26T16:10:13;18.05;;;10.63;;
33593;SDS011;19920;52.242;20.940;2022-12-26T16:18:21;17.33;;;10.85;;
33593;SDS011;19920;52.242;20.940;2022-12-26T16:20:55;17.60;;;10.95;;
33593;SDS011;19920;52.242;20.940;2022-12-26T16:23:50;17.05;;;11.15;;
33593;SDS011;19920;52.242;20.940;2022-12-26T16:26:20;15.88;;;11.27;;
33593;SDS011;19920;52.242;20.940;2022-12-26T16:28:52;19.92;;;11.63;;
33593;SDS011;19920;52.242;20.940;2022-12-26T16:31:22;18.20;;;12.20;;
33593;SDS011;19920;52.242;20.940;2022-12-26T16:33:50;19.15;;;11.40;;
33593;SDS011;19920;52.242;20.940;2022-12-26T16:36:21;17.38;;;11.43;;
33593;SDS011;19920;52.242;20.940;2022-12-26T16:38:48;19.30;;;12.40;;
33593;SDS011;19920;52.242;20.940;2022-12-26T16:43:49;17.52;;;12.65;;
33593;SDS011;19920;52.242;20.940;2022-12-26T16:46:16;18.45;;;12.65;;
33593;SDS011;19920;52.242;20.940;2022-12-26T16:48:43;21.80;;;13.23;;
33593;SDS011;19920;52.242;20.940;2022-12-26T16:54:13;20.08;;;13.52;;
33593;SDS011;19920;52.242;20.940;2022-12-26T16:56:41;19.95;;;13.70;;
33593;SDS011;19920;52.242;20.940;2022-12-26T16:59:12;20.15;;;13.18;;
33593;SDS011;19920;52.242;20.940;2022-12-26T17:01:49;20.30;;;13.05;;
33593;SDS011;19920;52.242;20.940;2022-12-26T17:04:18;19.75;;;12.30;;
33593;SDS011;19920;52.242;20.940;2022-12-26T17:09:21;18.15;;;10.85;;
33593;SDS011;19920;52.242;20.940;2022-12-26T17:11:52;18.70;;;10.90;;
33593;SDS011;19920;52.242;20.940;2022-12-26T17:16:58;16.60;;;10.43;;
33593;SDS011;19920;52.242;20.940;2022-12-26T17:19:31;17.35;;;10.98;;
33593;SDS011;19920;52.242;20.940;2022-12-26T17:24:39;16.90;;;10.98;;
33593;SDS011;19920;52.242;20.940;2022-12-26T17:27:14;19.17;;;11.05;;
33593;SDS011;19920;52.242;20.940;2022-12-26T17:29:49;17.45;;;10.43;;
33593;SDS011;19920;52.242;20.940;2022-12-26T17:35:10;17.50;;;11.18;;
33593;SDS011;19920;52.242;20.940;2022-12-26T17:37:37;14.45;;;10.13;;
33593;SDS011;19920;52.242;20.940;2022-12-26T17:42:45;13.63;;;9.05;;
33593;SDS011;19920;52.242;20.940;2022-12-26T17:45:14;13.80;;;9.40;;
33593;SDS011;19920;52.242;20.940;2022-12-26T17:47:45;14.93;;;9.55;;
33593;SDS011;19920;52.242;20.940;2022-12-26T17:50:11;14.90;;;9.77;;
33593;SDS011;19920;52.242;20.940;2022-12-26T17:52:37;14.35;;;10.35;;
33593;SDS011;19920;52.242;20.940;2022-12-26T17:55:04;15.77;;;11.27;;
33593;SDS011;19920;52.242;20.940;2022-12-26T17:57:37;16.77;;;11.02;;
33593;SDS011;19920;52.242;20.940;2022-12-26T18:00:05;15.38;;;10.90;;
33593;SDS011;19920;52.242;20.940;2022-12-26T18:02:39;18.17;;;11.02;;
33593;SDS011;19920;52.242;20.940;2022-12-26T18:05:04;20.30;;;11.93;;
33593;SDS011;19920;52.242;20.940;2022-12-26T18:07:30;17.45;;;11.98;;
33593;SDS011;19920;52.242;20.940;2022-12-26T18:09:56;19.17;;;12.57;;
33593;SDS011;19920;52.242;20.940;2022-12-26T18:12:21;17.88;;;12.00;;
33593;SDS011;19920;52.242;20.940;2022-12-26T18:14:47;19.65;;;13.40;;
33593;SDS011;19920;52.242;20.940;2022-12-26T18:17:13;18.48;;;12.60;;
33593;SDS011;19920;52.242;20.940;2022-12-26T18:19:43;17.75;;;11.52;;
33593;SDS011;19920;52.242;20.940;2022-12-26T18:22:13;18.60;;;13.02;;
33593;SDS011;19920;52.242;20.940;2022-12-26T18:24:40;19.08;;;12.35;;
33593;SDS011;19920;52.242;20.940;2022-12-26T18:27:05;20.85;;;12.65;;
33593;SDS011;19920;52.242;20.940;2022-12-26T18:29:32;17.75;;;12.38;;
33593;SDS011;19920;52.242;20.940;2022-12-26T18:31:57;20.52;;;12.50;;
33593;SDS011;19920;52.242;20.940;2022-12-26T18:34:23;17.98;;;12.52;;
33593;SDS011;19920;52.242;20.940;2022-12-26T18:36:49;21.63;;;13.23;;
33593;SDS011;19920;52.242;20.940;2022-12-26T18:39:15;21.15;;;12.98;;
33593;SDS011;19920;52.242;20.940;2022-12-26T18:41:41;18.67;;;12.45;;
33593;SDS011;19920;52.242;20.940;2022-12-26T18:44:07;20.50;;;13.57;;
33593;SDS011;19920;52.242;20.940;2022-12-26T18:46:33;17.08;;;11.65;;
33593;SDS011;19920;52.242;20.940;2022-12-26T18:48:58;17.88;;;12.73;;
33593;SDS011;19920;52.242;20.940;2022-12-26T18:51:24;21.25;;;12.05;;
33593;SDS011;19920;52.242;20.940;2022-12-26T18:53:52;19.63;;;12.52;;
33593;SDS011;19920;52.242;20.940;2022-12-26T18:56:19;18.75;;;11.57;;
33593;SDS011;19920;52.242;20.940;2022-12-26T18:58:46;19.85;;;11.25;;
33593;SDS011;19920;52.242;20.940;2022-12-26T19:01:13;16.25;;;11.43;;
33593;SDS011;19920;52.242;20.940;2022-12-26T19:03:40;14.35;;;10.18;;
33593;SDS011;19920;52.242;20.940;2022-12-26T19:06:18;14.23;;;10.00;;
33593;SDS011;19920;52.242;20.940;2022-12-26T19:08:47;15.68;;;10.38;;
33593;SDS011;19920;52.242;20.940;2022-12-26T19:11:13;15.82;;;10.45;;